Time;durP1;ratioP1;P1;durP2;ratioP2;P2;SDS_P1;SDS_P2;PMS_P1;PMS_P2;Temp;Humidity;BMP_temperature;BMP_pressure;BME280_temperature;BME280_humidity;BME280_pressure;Samples;Min_cycle;Max_cycle;Signal;HPM_P1;HPM_P2
2021/03/05 00:01:16;;;;;;;6.97;3.10;;;;;;;-1.70;100.00;101296.72;5005111;28;20072;-71
2021/03/05 00:03:42;;;;;;;5.37;2.77;;;;;;;-1.77;100.00;101295.59;4988755;28;20042;-69
2021/03/05 00:06:09;;;;;;;5.80;3.23;;;;;;;-1.84;100.00;101301.38;5002591;28;20152;-70
2021/03/05 00:08:35;;;;;;;4.03;2.27;;;;;;;-1.93;100.00;101303.59;4971496;28;20470;-69
2021/03/05 00:11:02;;;;;;;4.80;2.63;;;;;;;-2.02;100.00;101308.38;5004401;28;20088;-69
2021/03/05 00:13:28;;;;;;;5.47;2.70;;;;;;;-2.07;100.00;101304.75;5004214;28;20038;-69
2021/03/05 00:15:55;;;;;;;4.23;2.47;;;;;;;-2.13;100.00;101320.00;4987348;28;20037;-69
2021/03/05 00:18:21;;;;;;;5.43;2.83;;;;;;;-2.13;100.00;101313.13;5004486;28;20414;-69
2021/03/05 00:20:51;;;;;;;3.90;2.70;;;;;;;-2.17;100.00;101318.13;4990528;28;20495;-69
2021/03/05 00:23:17;;;;;;;4.63;2.87;;;;;;;-2.22;100.00;101309.28;4988847;28;20530;-69
2021/03/05 00:25:43;;;;;;;3.87;2.10;;;;;;;-2.34;100.00;101328.66;5021843;28;20037;-69
2021/03/05 00:28:10;;;;;;;3.23;2.17;;;;;;;-2.40;100.00;101325.81;4990031;28;20438;-69
2021/03/05 00:30:37;;;;;;;5.40;3.07;;;;;;;-2.44;100.00;101329.06;5006090;28;20041;-69
2021/03/05 00:33:04;;;;;;;4.30;2.90;;;;;;;-2.47;100.00;101341.00;4986502;28;20136;-68
2021/03/05 00:35:49;;;;;;;3.43;2.50;;;;;;;-2.52;100.00;101338.25;5003088;28;20045;-68
2021/03/05 00:38:16;;;;;;;5.50;3.03;;;;;;;-2.56;100.00;101342.38;5004021;28;20103;-68
2021/03/05 00:40:42;;;;;;;6.13;3.03;;;;;;;-2.62;100.00;101338.63;5005473;28;20490;-68
2021/03/05 00:43:08;;;;;;;6.77;2.30;;;;;;;-2.67;100.00;101341.03;4988948;28;20050;-68
2021/03/05 00:45:34;;;;;;;5.13;2.60;;;;;;;-2.70;100.00;101348.66;5003453;28;20438;-70
2021/03/05 00:48:00;;;;;;;3.80;1.77;;;;;;;-2.76;100.00;101338.06;5005042;28;20041;-68
2021/03/05 00:50:27;;;;;;;4.67;2.10;;;;;;;-2.83;100.00;101347.25;4988161;28;20041;-68
2021/03/05 00:52:55;;;;;;;3.23;2.17;;;;;;;-2.83;100.00;101347.25;5004055;28;20048;-69
2021/03/05 00:55:22;;;;;;;4.37;2.40;;;;;;;-2.87;100.00;101350.47;5001835;28;20124;-68
2021/03/05 00:57:48;;;;;;;3.93;2.20;;;;;;;-2.93;100.00;101352.81;5004428;28;20045;-69
2021/03/05 01:00:16;;;;;;;4.17;2.40;;;;;;;-2.97;100.00;101343.13;5004399;28;20041;-68
2021/03/05 01:02:42;;;;;;;3.47;2.07;;;;;;;-3.01;100.00;101354.19;5005132;28;20038;-68
2021/03/05 01:05:09;;;;;;;4.20;2.57;;;;;;;-3.04;100.00;101350.53;5001762;28;20117;-68
2021/03/05 01:07:35;;;;;;;7.17;2.40;;;;;;;-3.09;100.00;101350.34;5004617;28;20052;-68
2021/03/05 01:10:04;;;;;;;3.97;2.30;;;;;;;-3.14;100.00;101357.88;5005041;28;20046;-68
2021/03/05 01:12:30;;;;;;;4.63;2.30;;;;;;;-3.16;100.00;101354.34;5003696;28;20049;-68
2021/03/05 01:14:56;;;;;;;3.83;1.93;;;;;;;-3.20;100.00;101354.13;5003394;28;20062;-68
2021/03/05 01:17:22;;;;;;;4.90;2.53;;;;;;;-3.24;100.00;101354.81;5003622;28;20066;-68
2021/03/05 01:19:49;;;;;;;4.17;2.60;;;;;;;-3.25;100.00;101368.56;4988749;28;20046;-68
2021/03/05 01:22:16;;;;;;;3.47;2.37;;;;;;;-3.30;100.00;101362.28;5005072;28;20041;-69
2021/03/05 01:24:42;;;;;;;4.93;3.00;;;;;;;-3.33;100.00;101364.72;5003883;28;20476;-69
2021/03/05 01:27:09;;;;;;;4.77;2.37;;;;;;;-3.39;100.00;101367.91;5005641;28;20088;-68
2021/03/05 01:29:35;;;;;;;4.73;2.20;;;;;;;-3.44;100.00;101361.66;4987667;28;20581;-68
2021/03/05 01:32:01;;;;;;;3.70;2.23;;;;;;;-3.48;100.00;101377.81;4987407;28;510825;-68
2021/03/05 01:34:27;;;;;;;3.63;2.37;;;;;;;-3.52;100.00;101361.28;5005933;28;20105;-68
2021/03/05 01:36:54;;;;;;;5.53;2.40;;;;;;;-3.52;100.00;101373.31;5005254;28;20034;-68
2021/03/05 01:39:20;;;;;;;4.60;2.40;;;;;;;-3.55;100.00;101375.72;4988072;28;20053;-68
2021/03/05 01:41:47;;;;;;;4.93;2.40;;;;;;;-3.61;100.00;101372.88;4986766;28;20103;-68
2021/03/05 01:44:16;;;;;;;4.47;2.60;;;;;;;-3.67;100.00;101368.31;5061523;23;20033;-93
2021/03/05 01:46:45;;;;;;;6.20;2.57;;;;;;;-3.66;100.00;101372.66;5060247;28;20021;-93
2021/03/05 01:49:17;;;;;;;3.70;2.47;;;;;;;-3.74;100.00;101372.28;5044509;28;20025;-93
2021/03/05 01:51:44;;;;;;;3.30;2.30;;;;;;;-3.78;100.00;101369.50;5059389;28;20056;-93
2021/03/05 01:54:17;;;;;;;3.80;2.80;;;;;;;-3.77;100.00;101384.16;5037251;28;20097;-93
2021/03/05 01:56:51;;;;;;;4.60;2.57;;;;;;;-3.83;100.00;101386.44;5041442;28;20205;-93
2021/03/05 01:59:31;;;;;;;2.67;2.03;;;;;;;-3.88;100.00;101390.47;5024880;28;20021;-95
2021/03/05 02:02:07;;;;;;;3.97;2.33;;;;;;;-3.90;100.00;101394.69;5030826;28;20033;-92
2021/03/05 02:04:42;;;;;;;3.72;2.15;;;;;;;-3.92;100.00;101410.09;5027078;28;20030;-92
2021/03/05 03:54:31;;;;;;;4.57;2.43;;;;;;;-5.22;100.00;101501.16;5105786;28;20039;-93
2021/03/05 03:57:00;;;;;;;3.27;2.00;;;;;;;-5.26;100.00;101509.53;5005681;28;20050;-75
2021/03/05 03:59:26;;;;;;;3.10;2.10;;;;;;;-5.28;100.00;101510.25;5005997;28;20072;-72
2021/03/05 04:01:55;;;;;;;4.10;2.07;;;;;;;-5.30;100.00;101523.03;5019948;28;20033;-73
2021/03/05 04:04:22;;;;;;;3.13;2.00;;;;;;;-5.30;100.00;101522.16;5016701;28;20052;-72
2021/03/05 04:06:52;;;;;;;4.50;2.80;;;;;;;-5.33;100.00;101527.13;5012128;28;20823;-72
2021/03/05 04:09:19;;;;;;;5.33;2.60;;;;;;;-5.34;100.00;101533.97;5014132;28;20103;-72
2021/03/05 04:11:45;;;;;;;5.60;2.60;;;;;;;-5.37;100.00;101533.81;5028637;28;20045;-77
2021/03/05 04:14:11;;;;;;;3.50;2.10;;;;;;;-5.38;100.00;101539.75;5037613;28;20065;-75
2021/03/05 04:16:37;;;;;;;3.87;2.03;;;;;;;-5.43;100.00;101529.19;5031543;28;20050;-74
2021/03/05 04:19:04;;;;;;;3.90;2.50;;;;;;;-5.45;100.00;101535.94;5025409;28;20041;-72
2021/03/05 04:21:35;;;;;;;3.37;2.40;;;;;;;-5.45;100.00;101541.09;5010471;28;20119;-72
2021/03/05 04:24:03;;;;;;;3.63;2.10;;;;;;;-5.48;100.00;101542.59;5018671;28;20710;-72
2021/03/05 04:26:29;;;;;;;5.27;2.40;;;;;;;-5.48;100.00;101547.72;5032538;28;20037;-75
2021/03/05 04:28:56;;;;;;;3.77;2.53;;;;;;;-5.49;100.00;101552.00;5011811;28;20041;-76
2021/03/05 04:31:23;;;;;;;5.27;2.77;;;;;;;-5.51;100.00;101548.44;5032100;28;20037;-72
2021/03/05 04:33:50;;;;;;;5.03;2.53;;;;;;;-5.53;100.00;101544.03;5029861;28;20140;-74
2021/03/05 04:36:16;;;;;;;3.50;2.40;;;;;;;-5.53;100.00;101546.59;5025666;28;20061;-72
2021/03/05 04:38:58;;;;;;;3.97;2.57;;;;;;;-5.53;100.00;101547.47;5033998;28;20053;-74
2021/03/05 04:41:25;;;;;;;4.30;2.43;;;;;;;-5.55;100.00;101548.16;5030324;28;20037;-74
2021/03/05 04:43:52;;;;;;;6.00;2.80;;;;;;;-5.57;100.00;101552.34;5027460;28;20095;-74
2021/03/05 04:46:19;;;;;;;3.57;2.60;;;;;;;-5.60;100.00;101554.75;5015337;28;20033;-73
2021/03/05 04:48:45;;;;;;;5.33;3.43;;;;;;;-5.62;100.00;101548.63;5015281;28;20037;-75
2021/03/05 04:51:12;;;;;;;4.37;2.47;;;;;;;-5.66;100.00;101548.44;4998886;28;20060;-76
2021/03/05 04:53:38;;;;;;;4.87;2.40;;;;;;;-5.67;100.00;101551.81;5013665;28;20045;-75
2021/03/05 04:56:04;;;;;;;5.40;2.40;;;;;;;-5.71;100.00;101551.56;4994172;28;20084;-73
2021/03/05 04:58:30;;;;;;;5.00;2.00;;;;;;;-5.74;100.00;101554.81;5026962;28;20049;-71
2021/03/05 05:00:56;;;;;;;4.57;2.27;;;;;;;-5.76;100.00;101550.38;5031062;28;20057;-74
2021/03/05 05:03:23;;;;;;;4.97;2.57;;;;;;;-5.80;100.00;101558.72;5025050;28;20053;-74
2021/03/05 05:05:50;;;;;;;4.13;2.20;;;;;;;-5.83;100.00;101566.25;5030082;28;20033;-75
2021/03/05 05:08:16;;;;;;;4.77;2.47;;;;;;;-5.86;100.00;101569.53;5034546;28;20041;-72
2021/03/05 05:10:42;;;;;;;6.47;3.07;;;;;;;-5.89;100.00;101565.88;5014425;28;20033;-75
2021/03/05 05:13:09;;;;;;;3.80;2.43;;;;;;;-5.90;100.00;101570.13;5025231;28;20045;-73
2021/03/05 05:15:35;;;;;;;3.77;2.40;;;;;;;-5.91;100.00;101570.97;5028608;28;20052;-74
2021/03/05 05:18:02;;;;;;;3.77;2.80;;;;;;;-5.94;100.00;101577.63;5027904;28;20518;-71
2021/03/05 05:20:29;;;;;;;4.63;2.63;;;;;;;-5.96;100.00;101582.69;4997271;28;20064;-72
2021/03/05 05:22:55;;;;;;;5.03;2.83;;;;;;;-5.97;100.00;101588.59;5005225;28;20060;-72
2021/03/05 05:25:22;;;;;;;3.20;2.30;;;;;;;-6.00;100.00;101591.00;5007862;28;20034;-73
2021/03/05 05:27:48;;;;;;;4.27;2.50;;;;;;;-6.02;100.00;101590.03;5012018;28;20044;-72
2021/03/05 05:30:14;;;;;;;4.77;2.93;;;;;;;-6.05;100.00;101590.75;5035598;28;20041;-72
2021/03/05 05:32:40;;;;;;;4.17;2.33;;;;;;;-6.05;100.00;101597.56;5010051;28;20111;-72
2021/03/05 05:35:07;;;;;;;6.27;3.00;;;;;;;-6.08;100.00;101607.66;5026012;28;20048;-73
2021/03/05 05:37:33;;;;;;;4.10;2.47;;;;;;;-6.11;100.00;101602.34;4979317;28;20037;-75
2021/03/05 05:40:00;;;;;;;4.03;2.63;;;;;;;-6.11;100.00;101604.91;5028805;28;20045;-76
2021/03/05 05:42:26;;;;;;;5.00;2.90;;;;;;;-6.12;100.00;101606.59;4994781;28;20042;-74
2021/03/05 05:44:52;;;;;;;3.83;2.70;;;;;;;-6.12;100.00;101605.69;5005838;28;20107;-72
2021/03/05 05:47:19;;;;;;;4.33;2.50;;;;;;;-6.12;100.00;101609.16;5026929;28;20041;-72
2021/03/05 05:49:45;;;;;;;4.97;2.67;;;;;;;-6.08;100.00;101608.53;5033367;28;20124;-72
2021/03/05 05:52:25;;;;;;;5.47;2.77;;;;;;;-6.06;100.00;101611.19;4995723;28;20107;-72
2021/03/05 05:54:53;;;;;;;5.47;3.17;;;;;;;-6.07;100.00;101618.03;5024584;28;20045;-76
2021/03/05 05:57:20;;;;;;;4.10;2.60;;;;;;;-6.06;100.00;101622.38;5001021;28;20034;-74
2021/03/05 05:59:46;;;;;;;3.47;2.30;;;;;;;-6.06;100.00;101624.94;5006143;28;20052;-73
2021/03/05 06:02:13;;;;;;;5.57;2.60;;;;;;;-6.04;100.00;101636.25;5005074;28;20038;-73
2021/03/05 06:04:39;;;;;;;4.80;2.70;;;;;;;-6.02;100.00;101633.75;4992574;28;20136;-72
2021/03/05 06:07:06;;;;;;;4.90;2.67;;;;;;;-5.98;100.00;101634.03;5022009;28;20046;-72
2021/03/05 06:09:33;;;;;;;9.53;4.10;;;;;;;-5.93;100.00;101629.19;5021847;28;20379;-75
2021/03/05 06:12:10;;;;;;;4.97;3.67;;;;;;;-5.87;100.00;101638.94;5029305;28;20099;-72
2021/03/05 06:14:41;;;;;;;5.83;3.27;;;;;;;-5.83;100.00;101639.19;5010136;28;20480;-72
2021/03/05 06:17:07;;;;;;;4.60;3.03;;;;;;;-5.78;100.00;101645.53;5019619;28;20648;-73
2021/03/05 06:19:34;;;;;;;5.50;3.33;;;;;;;-5.66;100.00;101653.09;5021028;28;20065;-73
2021/03/05 06:22:00;;;;;;;5.20;3.17;;;;;;;-5.54;100.00;101666.72;5005145;28;20052;-72
2021/03/05 06:24:27;;;;;;;6.57;3.67;;;;;;;-5.35;100.00;101662.66;5003124;28;20049;-72
2021/03/05 06:26:58;;;;;;;7.17;3.83;;;;;;;-5.18;100.00;101667.13;5004948;28;20451;-72
2021/03/05 06:29:26;;;;;;;9.53;4.53;;;;;;;-4.96;100.00;101664.09;4988286;28;20050;-72
2021/03/05 06:32:00;;;;;;;9.33;5.47;;;;;;;-4.76;100.00;101667.81;5003987;28;20480;-74
2021/03/05 06:34:29;;;;;;;8.20;4.87;;;;;;;-4.58;100.00;101674.91;5004930;28;20042;-73
2021/03/05 06:37:06;;;;;;;8.90;5.37;;;;;;;-4.40;100.00;101677.63;4987468;28;20049;-73
2021/03/05 06:39:33;;;;;;;8.83;5.63;;;;;;;-4.26;100.00;101683.56;5023378;28;20427;-73
2021/03/05 06:42:03;;;;;;;12.83;6.27;;;;;;;-4.11;100.00;101689.59;5025126;28;20045;-74
2021/03/05 06:44:29;;;;;;;12.20;6.87;;;;;;;-3.96;100.00;101694.66;5017325;28;20037;-72
2021/03/05 06:46:56;;;;;;;13.33;7.40;;;;;;;-3.85;100.00;101698.75;5005073;28;20038;-74
2021/03/05 06:49:22;;;;;;;13.17;7.13;;;;;;;-3.74;100.00;101701.88;5004558;28;20046;-73
2021/03/05 06:51:54;;;;;;;14.70;8.40;;;;;;;-3.58;100.00;101695.84;5004558;28;20061;-73
2021/03/05 06:54:29;;;;;;;13.30;7.50;;;;;;;-3.44;100.00;101694.91;5002883;28;20050;-72
2021/03/05 06:56:56;;;;;;;15.27;8.30;;;;;;;-3.30;100.00;101706.81;5008255;28;20030;-76
2021/03/05 06:59:23;;;;;;;15.30;8.93;;;;;;;-3.18;100.00;101712.63;5027058;28;21667;-73
2021/03/05 07:01:58;;;;;;;15.93;8.40;;;;;;;-3.01;100.00;101700.56;5025005;28;20263;-75
2021/03/05 07:04:32;;;;;;;14.57;8.17;;;;;;;-2.86;100.00;101700.44;4996716;28;20076;-73
2021/03/05 07:07:06;;;;;;;16.00;8.00;;;;;;;-2.71;100.00;101710.66;5027586;28;20044;-73
2021/03/05 07:09:54;;;;;;;20.55;9.20;;;;;;;-2.66;100.00;101709.22;5022729;28;20103;-76
2021/03/05 07:12:25;;;;;;;19.53;10.13;;;;;;;-2.53;100.00;101710.69;5015891;28;20053;-72
2021/03/05 07:14:57;;;;;;;16.33;9.47;;;;;;;-2.50;100.00;101714.34;5029382;28;20092;-74
2021/03/05 07:17:24;;;;;;;16.80;9.70;;;;;;;-2.42;100.00;101725.94;5029102;28;20037;-75
2021/03/05 07:19:51;;;;;;;15.10;8.23;;;;;;;-2.34;100.00;101728.91;4991516;28;20076;-74
2021/03/05 07:22:17;;;;;;;17.67;8.87;;;;;;;-2.21;100.00;101731.25;5006626;28;20138;-74
2021/03/05 07:24:49;;;;;;;17.10;8.77;;;;;;;-2.06;100.00;101731.13;5008449;28;20033;-73
2021/03/05 07:27:15;;;;;;;18.37;8.97;;;;;;;-1.95;100.00;101726.44;5026495;28;20053;-72
2021/03/05 07:29:44;;;;;;;18.20;8.97;;;;;;;-1.79;100.00;101724.63;5029016;28;20041;-72
2021/03/05 07:32:20;;;;;;;16.70;8.63;;;;;;;-1.83;100.00;101729.63;5008108;28;20045;-72
2021/03/05 07:34:57;;;;;;;16.87;9.47;;;;;;;-1.74;100.00;101733.50;5006178;28;20049;-76
2021/03/05 07:37:28;;;;;;;13.47;7.50;;;;;;;-1.64;100.00;101739.13;5018497;28;20083;-73
2021/03/05 07:40:16;;;;;;;20.17;8.87;;;;;;;-1.57;100.00;101751.53;5020336;28;20046;-72
2021/03/05 07:42:43;;;;;;;14.90;8.03;;;;;;;-1.52;100.00;101750.03;5030384;28;20054;-76
2021/03/05 07:45:11;;;;;;;13.23;8.40;;;;;;;-1.48;100.00;101751.97;5014203;28;20037;-76
2021/03/05 07:47:40;;;;;;;14.60;8.10;;;;;;;-1.37;100.00;101748.13;5034701;28;20068;-72
2021/03/05 07:50:08;;;;;;;13.87;10.17;;;;;;;-1.18;100.00;101745.56;5028125;28;20076;-75
2021/03/05 07:52:35;;;;;;;17.87;11.73;;;;;;;-1.03;100.00;101753.13;5027750;28;20041;-74
2021/03/05 07:55:01;;;;;;;17.03;8.83;;;;;;;-0.89;100.00;101761.50;5010858;28;20695;-76
2021/03/05 07:57:30;;;;;;;14.43;8.27;;;;;;;-0.60;100.00;101758.44;5007791;28;20034;-75
2021/03/05 07:59:59;;;;;;;18.07;9.23;;;;;;;-0.30;100.00;101764.03;5008703;28;20100;-73
2021/03/05 08:02:55;;;;;;;17.87;9.87;;;;;;;0.01;100.00;101769.59;5008123;28;20029;-73
2021/03/05 08:05:37;;;;;;;14.13;8.97;;;;;;;0.07;100.00;101759.44;4992227;28;20446;-73
2021/03/05 08:08:09;;;;;;;18.93;8.87;;;;;;;0.33;100.00;101769.13;5008253;28;20515;-77
2021/03/05 08:11:04;;;;;;;13.27;7.20;;;;;;;0.25;100.00;101763.66;5006024;28;20061;-76
2021/03/05 08:16:25;;;;;;;12.77;7.50;;;;;;;0.47;100.00;101778.34;5025058;28;20056;-71
2021/03/05 08:19:15;;;;;;;11.97;7.23;;;;;;;0.62;100.00;101783.25;5008156;28;20042;-78
2021/03/05 08:21:51;;;;;;;9.77;6.60;;;;;;;0.94;100.00;101783.56;5025354;22;20048;-68
2021/03/05 08:24:40;;;;;;;12.47;8.47;;;;;;;1.18;100.00;101783.53;5044480;28;20041;-68
2021/03/05 08:27:13;;;;;;;11.97;7.67;;;;;;;1.84;100.00;101791.91;5029859;28;20045;-68
2021/03/05 08:30:03;;;;;;;15.00;7.47;;;;;;;2.99;100.00;101786.78;5028788;28;20519;-68
2021/03/05 08:35:02;;;;;;;8.37;5.40;;;;;;;4.44;91.33;101792.22;5054914;28;20075;-69
2021/03/05 08:37:30;;;;;;;7.83;5.10;;;;;;;5.56;84.10;101793.66;5052253;28;20060;-69
2021/03/05 08:40:22;;;;;;;7.07;4.30;;;;;;;5.96;81.20;101793.47;5049490;28;20126;-69
2021/03/05 08:42:57;;;;;;;6.43;4.50;;;;;;;6.13;75.69;101782.38;5055713;28;20452;-69
2021/03/05 08:45:29;;;;;;;6.63;4.50;;;;;;;5.97;75.25;101793.53;5050663;28;20045;-68
2021/03/05 08:47:58;;;;;;;6.43;4.57;;;;;;;5.95;76.44;101797.84;5066908;28;20129;-70
2021/03/05 08:50:32;;;;;;;8.03;5.03;;;;;;;7.59;78.87;101791.28;5049840;28;20032;-69
2021/03/05 08:53:00;;;;;;;5.65;4.20;;;;;;;9.34;65.19;101798.56;5050316;28;20493;-69
2021/03/05 08:55:34;;;;;;;6.85;5.22;;;;;;;10.03;60.71;101790.75;5032503;28;20064;-70
2021/03/05 08:58:00;;;;;;;5.68;4.20;;;;;;;10.31;59.43;101796.91;5068323;28;20040;-70
2021/03/05 09:00:30;;;;;;;5.28;3.92;;;;;;;10.19;58.93;101799.53;5064016;28;20054;-70
2021/03/05 09:03:07;;;;;;;4.88;4.15;;;;;;;11.50;57.46;101801.75;5050746;28;20052;-70
2021/03/05 09:05:37;;;;;;;4.90;3.88;;;;;;;11.45;55.19;101803.56;5067798;28;20041;-70
2021/03/05 09:08:05;;;;;;;7.20;4.28;;;;;;;12.20;57.28;101814.53;5067132;28;20078;-70
2021/03/05 09:10:43;;;;;;;5.95;3.58;;;;;;;13.34;49.74;101804.41;5032794;28;20044;-70
2021/03/05 09:13:11;;;;;;;5.43;4.07;;;;;;;13.91;50.68;101801.81;5050666;28;20516;-71
2021/03/05 09:15:44;;;;;;;3.70;3.05;;;;;;;13.55;48.00;101810.34;5046062;28;20045;-72
2021/03/05 09:18:17;;;;;;;4.55;3.50;;;;;;;12.46;52.59;101819.59;5048132;28;20033;-72
2021/03/05 09:20:46;;;;;;;5.88;3.80;;;;;;;12.67;51.07;101808.75;5029243;28;20036;-72
2021/03/05 09:23:36;;;;;;;5.55;3.75;;;;;;;13.75;51.82;101817.09;5039185;28;20044;-72
2021/03/05 09:26:04;;;;;;;5.70;3.28;;;;;;;14.36;47.31;101820.53;5040075;28;20075;-72
2021/03/05 09:28:49;;;;;;;4.45;2.55;;;;;;;15.12;46.29;101818.22;5044950;28;20036;-72
2021/03/05 09:31:23;;;;;;;4.78;3.00;;;;;;;13.38;41.01;101823.84;5014895;28;20048;-72
2021/03/05 09:33:51;;;;;;;5.75;3.33;;;;;;;12.30;49.82;101831.22;5047585;28;20124;-71
2021/03/05 09:36:21;;;;;;;4.32;2.65;;;;;;;12.58;46.98;101829.16;5030919;28;20036;-71
2021/03/05 09:38:56;;;;;;;3.92;2.78;;;;;;;12.59;47.98;101828.28;5047935;28;20130;-71
2021/03/05 09:41:27;;;;;;;3.28;2.53;;;;;;;12.21;48.38;101831.31;5048460;28;20444;-71
2021/03/05 09:44:08;;;;;;;4.40;2.92;;;;;;;12.02;48.80;101828.81;5066048;28;20033;-71
2021/03/05 09:46:41;;;;;;;3.65;1.90;;;;;;;13.55;47.50;101832.47;5049438;28;20680;-71
2021/03/05 09:49:29;;;;;;;3.28;2.00;;;;;;;13.55;46.34;101840.44;5041004;28;20496;-71
2021/03/05 09:51:55;;;;;;;3.28;1.63;;;;;;;13.36;45.93;101836.25;5049652;28;20048;-72
2021/03/05 09:54:41;;;;;;;3.15;1.50;;;;;;;15.33;37.58;101824.88;5062679;28;20044;-71
2021/03/05 09:57:09;;;;;;;1.83;1.10;;;;;;;16.20;40.47;101834.41;5048382;28;20044;-71
2021/03/05 09:59:48;;;;;;;1.63;0.95;;;;;;;17.45;32.85;101838.09;5064740;28;20037;-72
2021/03/05 10:02:21;;;;;;;1.13;0.85;;;;;;;16.93;34.24;101838.75;5065447;28;20063;-72
2021/03/05 10:04:49;;;;;;;1.02;0.80;;;;;;;17.46;29.67;101837.19;5032590;28;20041;-72
2021/03/05 10:07:19;;;;;;;1.92;1.10;;;;;;;17.28;30.19;101845.75;5047958;28;20051;-71
2021/03/05 10:09:45;;;;;;;1.23;0.98;;;;;;;17.31;37.61;101846.53;5066757;28;20047;-71
2021/03/05 10:12:12;;;;;;;2.10;0.90;;;;;;;18.49;34.32;101845.44;5067266;28;20048;-71
2021/03/05 10:14:40;;;;;;;1.23;1.00;;;;;;;18.91;31.35;101847.56;5041558;28;20048;-71
2021/03/05 10:17:09;;;;;;;3.13;1.10;;;;;;;19.53;29.46;101857.75;5050550;28;20040;-70
2021/03/05 10:19:39;;;;;;;1.08;0.75;;;;;;;19.26;26.95;101848.97;5066539;28;20556;-70
2021/03/05 10:22:06;;;;;;;1.40;1.10;;;;;;;18.93;28.12;101861.81;5065520;28;20041;-71
2021/03/05 10:24:33;;;;;;;1.40;1.00;;;;;;;18.63;30.68;101869.06;5047598;28;20056;-71
2021/03/05 10:27:14;;;;;;;1.83;1.20;;;;;;;20.00;31.08;101873.78;5048881;28;20064;-71
2021/03/05 10:29:45;;;;;;;2.40;1.00;;;;;;;19.00;26.62;101861.53;5048730;28;20134;-72
2021/03/05 10:32:28;;;;;;;1.85;1.02;;;;;;;20.00;28.13;101855.88;5033196;28;20052;-71
2021/03/05 10:34:56;;;;;;;;;;;;;;;19.03;25.44;101856.03;5049465;28;20102;-70
2021/03/05 10:37:23;;;;;;;2.13;0.90;;;;;;;19.51;28.15;101860.50;5078319;28;19920;-71
2021/03/05 10:39:50;;;;;;;1.73;1.02;;;;;;;19.51;25.27;101854.28;5012984;28;20601;-70
2021/03/05 10:42:18;;;;;;;1.48;0.90;;;;;;;19.83;24.59;101863.75;5048907;28;20041;-70
2021/03/05 10:44:46;;;;;;;0.70;0.70;;;;;;;20.27;23.70;101870.00;5057901;28;20436;-70
2021/03/05 10:47:14;;;;;;;1.50;1.00;;;;;;;19.75;25.22;101880.13;5030658;28;20669;-71
2021/03/05 10:49:42;;;;;;;1.73;0.82;;;;;;;19.64;21.93;101877.00;5029029;28;20091;-70
2021/03/05 10:52:10;;;;;;;1.98;1.00;;;;;;;20.91;24.40;101874.44;5053433;28;20044;-68
2021/03/05 10:54:38;;;;;;;1.23;0.98;;;;;;;21.10;25.66;101872.66;5067273;28;20044;-70
2021/03/05 10:57:04;;;;;;;1.00;0.90;;;;;;;19.18;21.46;101878.72;5068543;28;20086;-68
2021/03/05 10:59:30;;;;;;;1.55;0.85;;;;;;;19.62;24.68;101881.56;5043437;28;20041;-70
2021/03/05 11:01:56;;;;;;;1.67;0.80;;;;;;;19.59;22.55;101879.88;5068005;28;20474;-71
2021/03/05 11:04:24;;;;;;;1.88;0.93;;;;;;;19.58;21.64;101885.28;5024139;28;20048;-71
2021/03/05 11:06:52;;;;;;;1.17;0.90;;;;;;;19.11;22.10;101888.78;5038976;28;20579;-71
2021/03/05 11:09:18;;;;;;;1.58;0.80;;;;;;;17.81;24.59;101894.91;5044484;28;20505;-70
2021/03/05 11:11:45;;;;;;;2.53;1.30;;;;;;;19.30;25.71;101888.97;5057490;28;20051;-70
2021/03/05 11:14:12;;;;;;;0.77;0.70;;;;;;;19.88;21.18;101893.94;5047773;28;20037;-71
2021/03/05 11:16:38;;;;;;;1.83;1.13;;;;;;;20.17;18.58;101880.22;5029685;28;20460;-70
2021/03/05 11:19:05;;;;;;;0.90;0.80;;;;;;;20.91;24.20;101896.78;5064475;28;20040;-70
2021/03/05 11:21:33;;;;;;;1.65;1.13;;;;;;;20.11;20.41;101895.72;5050026;28;20067;-71
2021/03/05 11:23:59;;;;;;;1.10;0.82;;;;;;;19.29;22.12;101891.72;5050394;28;20044;-70
2021/03/05 11:26:26;;;;;;;1.27;1.02;;;;;;;20.02;22.40;101894.28;5031974;28;20037;-70
2021/03/05 11:28:53;;;;;;;2.60;1.10;;;;;;;20.88;22.08;101886.19;5050195;28;20090;-70
2021/03/05 11:31:20;;;;;;;2.97;1.10;;;;;;;20.30;20.56;101896.69;5033028;28;20044;-70
2021/03/05 11:33:47;;;;;;;1.48;1.25;;;;;;;19.35;20.99;101887.00;5068327;28;20667;-70
2021/03/05 11:36:14;;;;;;;2.25;1.10;;;;;;;20.22;22.86;101888.09;5047858;28;20041;-70
2021/03/05 11:38:42;;;;;;;2.35;1.05;;;;;;;21.71;22.72;101894.06;5067008;28;20041;-70
2021/03/05 11:41:09;;;;;;;1.85;1.00;;;;;;;21.72;22.14;101894.94;5049569;28;20663;-70
2021/03/05 11:43:40;;;;;;;2.20;1.00;;;;;;;21.30;19.82;101896.00;5049946;28;20045;-71
2021/03/05 11:46:06;;;;;;;1.00;0.90;;;;;;;20.52;21.79;101892.22;5052685;28;20033;-71
2021/03/05 11:48:32;;;;;;;1.27;0.90;;;;;;;22.04;22.23;101896.97;5048483;28;20082;-71
2021/03/05 11:50:59;;;;;;;2.20;0.80;;;;;;;21.41;17.28;101899.03;5049664;28;20037;-71
2021/03/05 11:53:26;;;;;;;2.65;1.30;;;;;;;19.43;18.49;101892.09;5046619;28;20040;-70
2021/03/05 11:55:52;;;;;;;2.25;1.00;;;;;;;19.28;21.78;101900.69;5067130;28;20039;-70
2021/03/05 11:58:18;;;;;;;1.75;0.90;;;;;;;18.35;21.45;101895.91;5067055;28;20098;-70
2021/03/05 12:00:45;;;;;;;1.23;1.00;;;;;;;18.10;23.03;101901.16;5065515;28;20067;-70
2021/03/05 12:03:11;;;;;;;2.67;1.10;;;;;;;19.81;21.47;101889.75;5066928;28;20037;-70
2021/03/05 12:05:38;;;;;;;2.38;1.15;;;;;;;20.32;20.46;101889.44;5049931;28;20091;-70
2021/03/05 12:08:04;;;;;;;1.40;0.90;;;;;;;18.52;21.91;101888.19;5049815;28;20040;-71
2021/03/05 12:10:30;;;;;;;1.55;0.93;;;;;;;20.58;21.45;101888.38;5067506;28;20052;-70
2021/03/05 12:12:56;;;;;;;1.55;0.90;;;;;;;20.97;22.77;101892.97;5068000;28;20479;-70
2021/03/05 12:15:23;;;;;;;1.08;0.80;;;;;;;21.25;21.96;101901.53;5049214;28;20048;-70
2021/03/05 12:17:49;;;;;;;1.55;1.15;;;;;;;21.42;20.87;101891.84;5048092;28;20041;-70
2021/03/05 12:20:16;;;;;;;2.53;1.05;;;;;;;21.73;17.89;101888.59;5064546;28;20190;-70
2021/03/05 12:22:43;;;;;;;1.85;1.10;;;;;;;21.40;19.94;101891.94;5046294;28;20051;-70
2021/03/05 12:25:09;;;;;;;2.00;1.10;;;;;;;20.33;19.57;101891.19;5064698;28;20033;-71
2021/03/05 12:27:36;;;;;;;1.70;0.90;;;;;;;21.35;18.12;101896.63;5059228;28;20040;-70
2021/03/05 12:30:03;;;;;;;1.33;0.90;;;;;;;21.95;20.73;101889.34;5048255;28;20048;-70
2021/03/05 12:32:29;;;;;;;1.52;1.10;;;;;;;20.06;17.86;101895.88;5048868;28;20501;-71
2021/03/05 12:34:55;;;;;;;2.72;1.20;;;;;;;18.57;19.37;101896.91;5066657;28;20123;-70
2021/03/05 12:37:21;;;;;;;2.08;1.33;;;;;;;20.20;20.74;101893.53;5048447;28;20071;-70
2021/03/05 12:39:48;;;;;;;2.83;1.17;;;;;;;18.64;19.25;101894.91;5029440;28;20643;-70
2021/03/05 12:42:14;;;;;;;2.40;1.00;;;;;;;16.67;21.71;101909.69;5048638;28;20535;-70
2021/03/05 12:44:46;;;;;;;1.40;0.77;;;;;;;16.56;22.32;101901.06;5028203;28;20068;-70
2021/03/05 12:47:12;;;;;;;2.15;0.80;;;;;;;17.84;20.74;101902.00;5066475;28;20102;-70
2021/03/05 12:49:39;;;;;;;0.95;0.77;;;;;;;17.23;20.66;101904.63;5065564;28;20051;-70
2021/03/05 12:52:05;;;;;;;3.20;1.23;;;;;;;16.67;21.50;101914.16;5045111;28;20048;-70
2021/03/05 12:54:31;;;;;;;2.53;1.05;;;;;;;14.82;23.66;101916.38;5021897;28;20051;-70
2021/03/05 12:56:58;;;;;;;1.48;0.88;;;;;;;15.32;26.60;101914.53;5048662;28;20796;-70
2021/03/05 12:59:24;;;;;;;2.47;0.85;;;;;;;17.07;24.99;101909.53;5066532;28;20044;-69
2021/03/05 13:01:50;;;;;;;2.65;0.90;;;;;;;16.95;23.23;101908.97;5047352;28;20098;-70
2021/03/05 13:04:17;;;;;;;1.95;0.70;;;;;;;15.01;20.89;101914.25;5048616;28;20052;-70
2021/03/05 13:06:44;;;;;;;1.20;0.70;;;;;;;13.69;24.98;101919.88;5055937;28;20071;-70
2021/03/05 13:09:10;;;;;;;0.80;0.75;;;;;;;11.90;26.54;101920.69;5048498;28;20107;-70
2021/03/05 13:11:37;;;;;;;2.50;1.15;;;;;;;11.89;28.54;101918.94;5067200;28;20051;-70
2021/03/05 13:14:03;;;;;;;1.13;0.90;;;;;;;12.18;26.10;101927.56;5031613;28;20504;-70
2021/03/05 13:16:29;;;;;;;2.38;0.98;;;;;;;10.64;28.84;101928.97;5046989;28;20040;-69
2021/03/05 13:18:56;;;;;;;1.15;0.73;;;;;;;11.24;30.47;101932.41;5056001;28;20529;-70
2021/03/05 13:21:22;;;;;;;1.83;0.80;;;;;;;11.97;29.01;101920.66;5065479;28;20067;-70